Terminal Aerodrome Forecast
Issued by NWS

Home | Current Version | Previous Version | Text Only | Print | Product List | Glossary On
Versions: 1 2 3 4 5 6 7 8 9 10 11 12 13 14 15 16 17 18
000
FTUS42 KTAE 240500
TAFECP
TAF
KECP 240520Z 2406/2506 00000KT 2SM BR SKC
     FM240700 00000KT 1/2SM FG OVC003
     FM241300 16005KT P6SM SCT025
     FM241800 22010KT P6SM SCT040
     FM250500 00000KT 5SM BR SCT005=

USA.gov is the U.S. government's official web portal to all federal, state and local government web resources and services.